Time;durP1;ratioP1;P1;durP2;ratioP2;P2;SDS_P1;SDS_P2;PMS_P1;PMS_P2;Temp;Humidity;BMP_temperature;BMP_pressure;BME280_temperature;BME280_humidity;BME280_pressure;Samples;Min_cycle;Max_cycle;Signal;HPM_P1;HPM_P2
2021/06/21 00:00:11;;;;;;;8.25;5.13;;;18.60;99.90;;;;;;5066131;28;20185;-42
2021/06/21 00:02:37;;;;;;;9.02;4.88;;;18.50;99.90;;;;;;5078799;28;20127;-42
2021/06/21 00:05:03;;;;;;;6.75;4.60;;;18.30;99.90;;;;;;5082543;28;20028;-42
2021/06/21 00:07:29;;;;;;;6.20;4.25;;;18.20;99.90;;;;;;5076219;28;20067;-42
2021/06/21 00:09:54;;;;;;;6.72;4.90;;;18.20;99.90;;;;;;5083070;28;20056;-43
2021/06/21 00:12:20;;;;;;;8.68;6.47;;;18.10;99.90;;;;;;5078918;28;20020;-42
2021/06/21 00:14:46;;;;;;;8.55;6.28;;;18.00;99.90;;;;;;5081228;28;20027;-42
2021/06/21 00:17:14;;;;;;;8.75;6.55;;;17.90;99.90;;;;;;5080641;28;20040;-42
2021/06/21 00:19:40;;;;;;;8.00;6.07;;;17.80;99.90;;;;;;5078840;28;20113;-42
2021/06/21 00:22:06;;;;;;;12.10;6.85;;;17.80;99.90;;;;;;5082803;28;20088;-42
2021/06/21 00:24:33;;;;;;;9.63;6.55;;;17.80;99.90;;;;;;5076673;28;20035;-42
2021/06/21 00:26:58;;;;;;;9.10;6.32;;;17.80;99.90;;;;;;5084453;28;20347;-43
2021/06/21 00:29:24;;;;;;;9.88;6.72;;;17.80;99.90;;;;;;5078848;28;20372;-43
2021/06/21 00:31:49;;;;;;;8.65;7.15;;;17.80;99.90;;;;;;5088504;28;20036;-43
2021/06/21 00:34:15;;;;;;;6.35;5.75;;;17.80;99.90;;;;;;5078103;28;20054;-42
2021/06/21 00:36:40;;;;;;;7.53;6.70;;;17.80;99.90;;;;;;5089916;28;20024;-42
2021/06/21 00:39:08;;;;;;;8.13;6.40;;;17.80;99.90;;;;;;5076080;28;20465;-43
2021/06/21 00:41:34;;;;;;;8.13;6.85;;;17.90;99.90;;;;;;5090633;28;20123;-43
2021/06/21 00:44:02;;;;;;;10.93;6.70;;;17.90;99.90;;;;;;5076323;28;20036;-43
2021/06/21 00:46:28;;;;;;;10.40;7.68;;;17.80;99.90;;;;;;5089686;28;20448;-42
2021/06/21 00:48:54;;;;;;;9.68;8.52;;;17.80;99.90;;;;;;5078482;28;20105;-42
2021/06/21 00:51:19;;;;;;;8.23;7.32;;;17.80;99.90;;;;;;5087807;28;20119;-43
2021/06/21 00:53:46;;;;;;;8.75;7.68;;;17.80;99.90;;;;;;5081238;28;20012;-42
2021/06/21 00:56:11;;;;;;;10.68;7.50;;;17.80;99.90;;;;;;5085093;28;20028;-42
2021/06/21 00:58:37;;;;;;;9.80;8.23;;;17.70;99.90;;;;;;5084037;28;20031;-42
2021/06/21 01:01:04;;;;;;;12.38;9.73;;;17.70;99.90;;;;;;5081962;28;20077;-42
2021/06/21 01:03:30;;;;;;;10.95;9.07;;;17.60;99.90;;;;;;5085583;28;20482;-42
2021/06/21 01:05:55;;;;;;;14.18;9.60;;;17.50;99.90;;;;;;5080700;28;20098;-42
2021/06/21 01:08:21;;;;;;;10.35;9.25;;;17.40;99.90;;;;;;5088189;28;20057;-42
2021/06/21 01:10:51;;;;;;;10.25;8.82;;;17.20;99.90;;;;;;5077976;28;20503;-42
2021/06/21 01:13:35;;;;;;;11.73;9.35;;;17.10;99.90;;;;;;5087709;28;20028;-43
2021/06/21 01:16:11;;;;;;;10.75;9.65;;;17.10;99.90;;;;;;5077847;28;20020;-43
2021/06/21 01:18:38;;;;;;;14.27;11.07;;;16.90;99.90;;;;;;5088201;28;20608;-42
2021/06/21 01:21:34;;;;;;;12.02;10.40;;;16.80;99.90;;;;;;5058813;28;20119;-43
2021/06/21 01:24:37;;;;;;;13.02;11.05;;;16.80;99.90;;;;;;5087664;28;20040;-43
2021/06/21 01:27:14;;;;;;;13.27;10.88;;;16.70;99.90;;;;;;5076658;28;20030;-42
2021/06/21 01:29:52;;;;;;;15.68;12.05;;;16.60;99.90;;;;;;5083353;28;20428;-43
2021/06/21 01:32:18;;;;;;;12.93;10.07;;;16.50;99.90;;;;;;5083971;28;20024;-42
2021/06/21 01:34:49;;;;;;;11.93;10.70;;;16.50;99.90;;;;;;5083648;28;20032;-42
2021/06/21 01:37:17;;;;;;;12.93;10.47;;;16.40;99.90;;;;;;5081648;28;20047;-42
2021/06/21 01:39:46;;;;;;;12.82;10.63;;;16.40;99.90;;;;;;5085261;28;20327;-42
2021/06/21 01:42:14;;;;;;;13.52;10.65;;;16.40;99.90;;;;;;5079629;28;20084;-43
2021/06/21 01:44:43;;;;;;;10.40;9.25;;;16.40;99.90;;;;;;5087268;28;20407;-43
2021/06/21 01:47:10;;;;;;;13.13;10.55;;;16.40;99.90;;;;;;5066613;28;20020;-43
2021/06/21 01:49:43;;;;;;;11.50;9.63;;;16.30;99.90;;;;;;5087515;28;20024;-43
2021/06/21 01:52:11;;;;;;;11.43;10.18;;;16.30;99.90;;;;;;5077637;28;20649;-43
2021/06/21 01:54:43;;;;;;;10.57;9.48;;;16.30;99.90;;;;;;5087440;28;20479;-42
2021/06/21 01:57:09;;;;;;;11.02;9.52;;;16.30;99.90;;;;;;5076889;28;20074;-42
2021/06/21 01:59:35;;;;;;;11.20;8.75;;;16.30;99.90;;;;;;5088953;28;20424;-43
2021/06/21 02:02:02;;;;;;;11.65;8.43;;;16.30;99.90;;;;;;5075470;28;20096;-43
2021/06/21 02:04:32;;;;;;;9.23;8.32;;;16.30;99.90;;;;;;5078407;28;20052;-43
2021/06/21 02:07:00;;;;;;;10.65;9.10;;;16.30;99.90;;;;;;5080507;28;20058;-42
2021/06/21 02:09:26;;;;;;;8.68;7.80;;;16.30;99.90;;;;;;5068038;28;20024;-42
2021/06/21 02:11:53;;;;;;;9.52;8.48;;;16.30;99.90;;;;;;5080675;28;20059;-42
2021/06/21 02:14:22;;;;;;;9.32;7.88;;;16.20;99.90;;;;;;5068236;28;20387;-42
2021/06/21 02:16:51;;;;;;;9.43;8.02;;;16.20;99.90;;;;;;5077927;28;20020;-42
2021/06/21 02:19:18;;;;;;;9.30;7.25;;;16.10;99.90;;;;;;5070371;28;20037;-43
2021/06/21 02:21:44;;;;;;;7.65;6.65;;;16.10;99.90;;;;;;5076107;28;20021;-43
2021/06/21 02:24:13;;;;;;;7.53;6.68;;;16.10;99.90;;;;;;5071985;28;20043;-42
2021/06/21 02:26:39;;;;;;;9.52;8.05;;;16.00;99.90;;;;;;5074522;28;20073;-42
2021/06/21 02:29:05;;;;;;;11.85;8.02;;;16.00;99.90;;;;;;5074244;28;20032;-43
2021/06/21 02:31:33;;;;;;;8.80;7.47;;;15.90;99.90;;;;;;5071448;28;20032;-43
2021/06/21 02:34:00;;;;;;;9.68;7.30;;;15.90;99.90;;;;;;5076301;28;20024;-43
2021/06/21 02:36:25;;;;;;;8.57;7.40;;;15.90;99.90;;;;;;5069200;28;20029;-43
2021/06/21 02:38:52;;;;;;;7.95;6.88;;;15.80;99.90;;;;;;5078831;28;20024;-43
2021/06/21 02:41:18;;;;;;;7.60;6.82;;;15.80;99.90;;;;;;5069293;28;20021;-43
2021/06/21 02:43:43;;;;;;;7.97;6.68;;;15.80;99.90;;;;;;5078857;28;20047;-42
2021/06/21 02:46:11;;;;;;;9.05;6.95;;;15.70;99.90;;;;;;5067363;28;20070;-42
2021/06/21 02:48:39;;;;;;;7.95;6.10;;;15.70;99.90;;;;;;5075149;28;20015;-43
2021/06/21 02:51:07;;;;;;;7.15;6.15;;;15.60;99.90;;;;;;5087918;28;20442;-43
2021/06/21 02:53:57;;;;;;;9.23;6.28;;;15.60;99.90;;;;;;5074861;28;20097;-42
2021/06/21 02:56:49;;;;;;;10.13;6.35;;;15.50;99.90;;;;;;5088189;28;20497;-43
2021/06/21 02:59:20;;;;;;;8.25;6.28;;;15.40;99.90;;;;;;5075646;28;20383;-42
2021/06/21 03:01:49;;;;;;;6.75;5.78;;;15.40;99.90;;;;;;5087093;28;20505;-42
2021/06/21 03:04:16;;;;;;;7.68;6.07;;;15.30;99.90;;;;;;5078510;28;20593;-43
2021/06/21 03:06:45;;;;;;;8.85;6.35;;;15.30;99.90;;;;;;5087525;28;20105;-43
2021/06/21 03:09:14;;;;;;;6.57;5.53;;;15.30;99.90;;;;;;5074871;28;20501;-43
2021/06/21 03:11:45;;;;;;;7.55;5.70;;;15.30;99.90;;;;;;5087546;28;20036;-43
2021/06/21 03:14:11;;;;;;;6.75;5.63;;;15.20;99.90;;;;;;5073759;28;20023;-42
2021/06/21 03:16:39;;;;;;;6.72;5.38;;;15.20;99.90;;;;;;5063283;28;20123;-42
2021/06/21 03:19:04;;;;;;;6.57;5.63;;;15.20;99.90;;;;;;5074615;28;20032;-42
2021/06/21 03:21:30;;;;;;;7.80;4.90;;;15.20;99.90;;;;;;5065892;28;20032;-43
2021/06/21 03:23:56;;;;;;;7.85;5.40;;;15.20;99.90;;;;;;5074349;28;20034;-42
2021/06/21 03:26:28;;;;;;;5.35;4.78;;;15.20;99.90;;;;;;5070596;28;20360;-42
2021/06/21 03:28:54;;;;;;;5.30;4.80;;;15.10;99.90;;;;;;5073749;28;20051;-42
2021/06/21 03:31:21;;;;;;;5.18;4.68;;;15.10;99.90;;;;;;5072205;28;20128;-42
2021/06/21 03:33:47;;;;;;;5.32;4.80;;;15.10;99.90;;;;;;5070568;28;20483;-42
2021/06/21 03:36:12;;;;;;;5.53;5.03;;;15.10;99.90;;;;;;5074463;28;20067;-42
2021/06/21 03:38:38;;;;;;;5.25;4.72;;;15.00;99.90;;;;;;5069865;28;20439;-43
2021/06/21 03:41:05;;;;;;;7.35;5.25;;;15.00;99.90;;;;;;5076468;28;20112;-43
2021/06/21 03:43:32;;;;;;;5.85;4.43;;;15.00;99.90;;;;;;5068879;28;20082;-43
2021/06/21 03:46:00;;;;;;;6.75;4.75;;;14.90;99.90;;;;;;5078245;28;20028;-43
2021/06/21 03:48:27;;;;;;;5.47;4.28;;;14.90;99.90;;;;;;5067876;28;20028;-43
2021/06/21 03:50:53;;;;;;;5.85;4.32;;;14.80;99.90;;;;;;5078666;28;20078;-43
2021/06/21 03:53:21;;;;;;;5.43;4.47;;;14.80;99.90;;;;;;5067289;28;20112;-43
2021/06/21 03:55:47;;;;;;;8.35;5.25;;;14.80;99.90;;;;;;5078782;28;20403;-43
2021/06/21 03:58:13;;;;;;;6.93;5.03;;;14.70;99.90;;;;;;5067233;28;20090;-43
2021/06/21 04:00:38;;;;;;;5.22;4.68;;;14.70;99.90;;;;;;5079287;28;20493;-42
2021/06/21 04:03:06;;;;;;;6.75;5.28;;;14.70;99.90;;;;;;5068007;28;20102;-43
2021/06/21 04:05:32;;;;;;;7.72;5.28;;;14.60;99.90;;;;;;5077097;28;20041;-43
2021/06/21 04:07:58;;;;;;;6.15;5.00;;;14.60;99.90;;;;;;5089422;28;20366;-43
2021/06/21 04:10:26;;;;;;;5.75;4.50;;;14.60;99.90;;;;;;5082414;28;20111;-44
2021/06/21 04:12:53;;;;;;;6.75;4.35;;;14.50;99.90;;;;;;5087033;28;20440;-43
2021/06/21 04:15:28;;;;;;;5.32;4.30;;;14.50;99.90;;;;;;5084605;28;20424;-44
2021/06/21 04:17:55;;;;;;;7.90;4.25;;;14.50;99.90;;;;;;5085969;28;20385;-44
2021/06/21 04:20:21;;;;;;;6.70;3.78;;;14.50;99.90;;;;;;5085910;28;20100;-44
2021/06/21 04:22:50;;;;;;;4.95;4.47;;;14.50;99.90;;;;;;5083065;28;20421;-44
2021/06/21 04:25:17;;;;;;;6.05;4.53;;;14.40;99.90;;;;;;5087286;28;20016;-43
2021/06/21 04:27:43;;;;;;;5.63;4.07;;;14.40;99.90;;;;;;5082034;28;20031;-44
2021/06/21 04:30:12;;;;;;;4.53;3.85;;;14.40;99.90;;;;;;5088743;28;20032;-47
2021/06/21 04:32:38;;;;;;;4.53;3.80;;;14.40;99.90;;;;;;5079665;28;20032;-45
2021/06/21 04:35:06;;;;;;;4.43;3.80;;;14.50;99.90;;;;;;5088885;28;20480;-44
2021/06/21 04:37:32;;;;;;;4.60;3.97;;;14.50;99.90;;;;;;5078958;28;20165;-45
2021/06/21 04:39:57;;;;;;;6.00;3.92;;;14.50;99.90;;;;;;5090289;28;20362;-45
2021/06/21 04:42:23;;;;;;;4.53;3.70;;;14.50;99.90;;;;;;5078439;28;20027;-44
2021/06/21 04:44:49;;;;;;;4.20;3.80;;;14.50;99.90;;;;;;5090039;28;20197;-45
2021/06/21 04:47:15;;;;;;;4.57;3.58;;;14.50;99.90;;;;;;5077600;28;20047;-45
2021/06/21 04:49:41;;;;;;;5.65;3.50;;;14.50;99.90;;;;;;5090221;28;20020;-45
2021/06/21 04:52:09;;;;;;;3.95;3.55;;;14.50;99.90;;;;;;5078401;28;20039;-45
2021/06/21 04:54:35;;;;;;;4.72;3.85;;;14.50;99.90;;;;;;5089766;28;20074;-45
2021/06/21 04:57:00;;;;;;;5.50;3.78;;;14.50;99.90;;;;;;5080753;28;20024;-44
2021/06/21 04:59:26;;;;;;;4.63;3.58;;;14.40;99.90;;;;;;5086636;28;20105;-44
2021/06/21 05:01:51;;;;;;;4.65;3.85;;;14.40;99.90;;;;;;5083218;28;20024;-44
2021/06/21 05:04:17;;;;;;;3.70;3.30;;;14.40;99.90;;;;;;5077151;28;20051;-44
2021/06/21 05:06:42;;;;;;;4.25;3.33;;;14.40;99.90;;;;;;5072997;28;20419;-44
2021/06/21 05:09:09;;;;;;;3.67;3.15;;;14.40;99.90;;;;;;5078867;28;20467;-44
2021/06/21 05:11:35;;;;;;;3.42;3.13;;;14.40;99.90;;;;;;5071617;28;20070;-43
2021/06/21 05:14:01;;;;;;;3.88;2.88;;;14.40;99.90;;;;;;5078710;28;20020;-44
2021/06/21 05:16:27;;;;;;;3.50;2.65;;;14.40;99.90;;;;;;5071485;28;20035;-43
2021/06/21 05:18:54;;;;;;;3.10;2.80;;;14.40;99.90;;;;;;5080742;28;20023;-44
2021/06/21 05:21:19;;;;;;;3.10;2.80;;;14.40;99.90;;;;;;5069519;28;20485;-44
2021/06/21 05:23:46;;;;;;;2.63;2.17;;;14.40;99.90;;;;;;5082426;28;20127;-44
2021/06/21 05:26:12;;;;;;;2.72;2.53;;;14.40;99.90;;;;;;5068723;28;20417;-44
2021/06/21 05:28:40;;;;;;;3.10;2.30;;;14.40;99.90;;;;;;5082176;28;20032;-44
2021/06/21 05:31:06;;;;;;;2.60;2.40;;;14.40;99.90;;;;;;5069713;28;20052;-44
2021/06/21 05:33:32;;;;;;;2.65;2.35;;;14.40;99.90;;;;;;5080081;28;20063;-44
2021/06/21 05:35:58;;;;;;;2.47;2.28;;;14.40;99.90;;;;;;5088638;28;20114;-44
2021/06/21 05:38:24;;;;;;;2.25;2.05;;;14.40;99.90;;;;;;5079310;28;20124;-44
2021/06/21 05:40:50;;;;;;;2.22;1.92;;;14.40;99.90;;;;;;5085872;28;20423;-44
2021/06/21 05:43:15;;;;;;;2.00;1.77;;;14.40;99.90;;;;;;5078972;28;20029;-44
2021/06/21 05:45:41;;;;;;;2.17;1.90;;;14.40;99.90;;;;;;5082244;28;20107;-44
2021/06/21 05:48:07;;;;;;;2.17;1.80;;;14.40;99.90;;;;;;5083822;28;20119;-44
2021/06/21 05:50:33;;;;;;;1.88;1.77;;;14.40;99.90;;;;;;5075097;28;20648;-44
2021/06/21 05:52:58;;;;;;;2.50;2.00;;;14.40;99.90;;;;;;5086288;28;20023;-44
2021/06/21 05:55:24;;;;;;;2.53;2.28;;;14.40;99.90;;;;;;5066333;28;20046;-44
2021/06/21 05:57:54;;;;;;;2.13;1.83;;;14.40;99.90;;;;;;5086459;28;20031;-44
2021/06/21 06:00:21;;;;;;;2.35;2.15;;;14.40;99.90;;;;;;5076863;28;20471;-44
2021/06/21 06:02:47;;;;;;;2.20;2.00;;;14.40;99.90;;;;;;5086353;28;20459;-43
2021/06/21 06:05:14;;;;;;;2.42;1.85;;;14.40;99.90;;;;;;5076995;28;20093;-45
2021/06/21 06:07:43;;;;;;;2.50;1.70;;;14.40;99.90;;;;;;5067940;28;20119;-44
2021/06/21 06:10:09;;;;;;;1.88;1.77;;;14.40;99.90;;;;;;5074786;28;20460;-47
2021/06/21 06:12:34;;;;;;;1.90;1.65;;;14.50;99.90;;;;;;5085369;28;20047;-43
2021/06/21 06:15:00;;;;;;;1.77;1.60;;;14.50;99.90;;;;;;5071264;28;20063;-44
2021/06/21 06:17:27;;;;;;;1.77;1.67;;;14.50;99.90;;;;;;5086869;28;20031;-44
2021/06/21 06:19:52;;;;;;;2.13;1.80;;;14.50;99.90;;;;;;5077202;28;20040;-44
2021/06/21 06:22:19;;;;;;;2.08;1.40;;;14.50;99.90;;;;;;5086066;28;20100;-44
2021/06/21 06:24:45;;;;;;;2.05;1.60;;;14.50;99.90;;;;;;5080733;28;20084;-44
2021/06/21 06:27:11;;;;;;;1.67;1.55;;;14.50;99.90;;;;;;5062722;28;21234;-44
2021/06/21 06:29:36;;;;;;;2.20;1.50;;;14.40;99.90;;;;;;5061924;28;20104;-44
2021/06/21 06:32:03;;;;;;;1.58;1.40;;;14.50;99.90;;;;;;5075545;28;20028;-44
2021/06/21 06:34:29;;;;;;;2.05;1.85;;;14.50;99.90;;;;;;5063604;28;20032;-44
2021/06/21 06:36:55;;;;;;;1.90;1.67;;;14.50;99.90;;;;;;5063895;28;20020;-44
2021/06/21 06:39:21;;;;;;;2.10;1.60;;;14.40;99.90;;;;;;5056025;28;20528;-44
2021/06/21 06:41:47;;;;;;;1.60;1.50;;;14.40;99.90;;;;;;5079236;28;20036;-43
2021/06/21 06:44:12;;;;;;;1.80;1.70;;;14.40;99.90;;;;;;5068123;28;20043;-45
2021/06/21 06:46:38;;;;;;;1.92;1.52;;;14.50;99.90;;;;;;5080138;28;20024;-44
2021/06/21 06:49:04;;;;;;;1.48;1.38;;;14.40;99.90;;;;;;5067476;28;20028;-44
2021/06/21 06:51:35;;;;;;;1.60;1.40;;;14.40;99.90;;;;;;5080157;28;20119;-44
2021/06/21 06:54:09;;;;;;;2.30;1.60;;;14.40;99.90;;;;;;5067706;28;20017;-44
2021/06/21 06:59:19;;;;;;;1.60;1.50;;;14.50;99.90;;;;;;5068166;28;20648;-44
2021/06/21 07:01:45;;;;;;;3.35;1.80;;;14.50;99.90;;;;;;5080343;28;20020;-43
2021/06/21 07:04:11;;;;;;;2.85;1.90;;;14.50;99.90;;;;;;5071627;28;20544;-44
2021/06/21 07:06:37;;;;;;;1.73;1.63;;;14.50;99.90;;;;;;5074933;28;20108;-44
2021/06/21 07:09:03;;;;;;;1.90;1.80;;;14.50;99.90;;;;;;5057483;28;20021;-44
2021/06/21 07:11:29;;;;;;;2.22;1.70;;;14.50;99.90;;;;;;5065080;28;20428;-44
2021/06/21 07:13:55;;;;;;;2.10;1.90;;;14.50;99.90;;;;;;5062531;28;20061;-44
2021/06/21 07:16:20;;;;;;;3.05;1.55;;;14.50;99.90;;;;;;5065252;28;20017;-43
2021/06/21 07:18:46;;;;;;;1.90;1.80;;;14.50;99.90;;;;;;5056993;28;20025;-44
2021/06/21 07:21:11;;;;;;;1.92;1.83;;;14.50;99.90;;;;;;5063818;28;20019;-43
2021/06/21 07:23:37;;;;;;;2.42;1.85;;;14.50;99.90;;;;;;5073070;28;20036;-44
2021/06/21 07:26:05;;;;;;;1.65;1.55;;;14.50;99.90;;;;;;5085359;28;20020;-44
2021/06/21 07:28:31;;;;;;;1.92;1.73;;;14.50;99.90;;;;;;5065174;28;20119;-44
2021/06/21 07:30:57;;;;;;;2.20;1.55;;;14.60;99.90;;;;;;5086076;28;20020;-44
2021/06/21 07:33:23;;;;;;;1.40;1.30;;;14.60;99.90;;;;;;5076121;28;20337;-44
2021/06/21 07:35:50;;;;;;;1.70;1.60;;;14.60;99.90;;;;;;5062120;28;20369;-44
2021/06/21 07:38:16;;;;;;;1.98;1.70;;;14.70;99.90;;;;;;5068853;28;20160;-44
2021/06/21 07:40:42;;;;;;;1.50;1.40;;;14.70;99.90;;;;;;5086843;28;20078;-44
2021/06/21 07:43:07;;;;;;;1.70;1.50;;;14.70;99.90;;;;;;5074438;28;20036;-44
2021/06/21 07:45:36;;;;;;;1.63;1.52;;;14.70;99.90;;;;;;5088098;28;20351;-44
2021/06/21 07:48:01;;;;;;;1.60;1.50;;;14.70;99.90;;;;;;5074331;28;20016;-44
2021/06/21 07:50:29;;;;;;;1.48;1.30;;;14.70;99.90;;;;;;5086831;28;20034;-43
2021/06/21 07:52:55;;;;;;;1.60;1.50;;;14.70;99.90;;;;;;5077446;28;20029;-43
2021/06/21 07:55:27;;;;;;;1.40;1.30;;;14.80;99.90;;;;;;5083730;28;20103;-44
2021/06/21 07:57:53;;;;;;;1.70;1.60;;;14.90;99.90;;;;;;5078884;28;20447;-44
2021/06/21 08:00:22;;;;;;;1.50;1.40;;;14.90;99.90;;;;;;5078715;28;20116;-43
2021/06/21 08:02:48;;;;;;;1.92;1.63;;;14.90;99.90;;;;;;5071720;28;20032;-44
2021/06/21 08:05:14;;;;;;;1.65;1.55;;;14.90;99.90;;;;;;5085680;28;20042;-44
2021/06/21 08:07:40;;;;;;;1.55;1.45;;;14.90;99.90;;;;;;5083697;28;20589;-44
2021/06/21 08:10:06;;;;;;;1.60;1.50;;;14.80;99.90;;;;;;5076925;28;20032;-43
2021/06/21 08:12:32;;;;;;;2.45;1.60;;;14.80;99.90;;;;;;5086030;28;20123;-44
2021/06/21 08:14:57;;;;;;;2.17;1.80;;;14.80;99.90;;;;;;5071768;28;20104;-44
2021/06/21 08:17:26;;;;;;;1.95;1.85;;;14.80;99.90;;;;;;5072756;28;20029;-43
2021/06/21 08:19:52;;;;;;;1.73;1.60;;;14.80;99.90;;;;;;5075884;28;20099;-43
2021/06/21 08:22:21;;;;;;;2.10;1.92;;;14.80;99.90;;;;;;5065568;28;20044;-44
2021/06/21 08:24:48;;;;;;;2.10;1.95;;;14.80;99.90;;;;;;5078990;28;20027;-44
2021/06/21 08:27:15;;;;;;;2.55;2.13;;;14.80;99.90;;;;;;5067126;28;20104;-44
2021/06/21 08:29:41;;;;;;;1.95;1.70;;;14.80;99.90;;;;;;5078534;28;20024;-43
2021/06/21 08:32:07;;;;;;;2.40;2.20;;;14.80;99.90;;;;;;5066764;28;20108;-43
2021/06/21 08:34:32;;;;;;;2.33;2.10;;;14.80;99.90;;;;;;5065766;28;20127;-43
2021/06/21 08:36:58;;;;;;;2.22;2.03;;;14.80;99.90;;;;;;5077333;28;20420;-43
2021/06/21 08:39:23;;;;;;;2.33;2.10;;;14.90;99.90;;;;;;5065508;28;20029;-43
2021/06/21 08:41:49;;;;;;;2.30;2.10;;;14.90;99.90;;;;;;5059518;28;20028;-45
2021/06/21 08:44:15;;;;;;;1.77;1.67;;;14.90;99.90;;;;;;5062296;28;20134;-45
2021/06/21 08:46:41;;;;;;;1.70;1.60;;;14.90;99.90;;;;;;5080986;28;20320;-45
2021/06/21 08:49:09;;;;;;;1.90;1.80;;;14.90;99.90;;;;;;5083162;28;20610;-44
2021/06/21 08:51:36;;;;;;;2.40;1.90;;;14.90;99.90;;;;;;5078880;28;20069;-44
2021/06/21 08:54:03;;;;;;;2.05;1.67;;;14.90;99.90;;;;;;5070791;28;20017;-43
2021/06/21 08:56:32;;;;;;;1.70;1.60;;;14.90;99.90;;;;;;5068105;28;20476;-44
2021/06/21 08:58:57;;;;;;;2.30;1.77;;;14.90;99.90;;;;;;5087994;28;20023;-44
2021/06/21 09:01:23;;;;;;;1.70;1.60;;;14.90;99.90;;;;;;5078954;28;20020;-44
2021/06/21 09:03:58;;;;;;;1.77;1.67;;;14.90;99.90;;;;;;5089287;28;20043;-44
2021/06/21 09:06:24;;;;;;;1.70;1.60;;;14.90;99.90;;;;;;5077755;28;20547;-44
2021/06/21 09:08:58;;;;;;;2.42;1.52;;;14.90;99.90;;;;;;5069684;28;20032;-44
2021/06/21 09:11:45;;;;;;;2.65;1.60;;;14.90;99.90;;;;;;5076193;28;20539;-44
2021/06/21 09:14:25;;;;;;;1.90;1.70;;;14.90;99.90;;;;;;5088849;28;20067;-44
2021/06/21 09:16:52;;;;;;;2.03;1.70;;;14.90;99.90;;;;;;5078378;28;20039;-44
2021/06/21 09:19:18;;;;;;;2.00;1.60;;;14.90;99.90;;;;;;5069073;28;20029;-43
2021/06/21 09:21:47;;;;;;;1.90;1.70;;;14.90;99.90;;;;;;5081996;28;20137;-43
2021/06/21 09:24:12;;;;;;;1.92;1.58;;;14.90;99.90;;;;;;5069569;28;20032;-43
2021/06/21 09:26:44;;;;;;;2.13;1.88;;;15.00;99.90;;;;;;5081394;28;20074;-43
2021/06/21 09:29:10;;;;;;;1.77;1.60;;;14.90;99.90;;;;;;5067098;28;20044;-43
2021/06/21 09:31:55;;;;;;;1.90;1.67;;;14.90;99.90;;;;;;5082260;28;20016;-43
2021/06/21 09:34:23;;;;;;;1.50;1.40;;;15.00;99.90;;;;;;5068836;28;20684;-44
2021/06/21 09:36:54;;;;;;;2.00;1.90;;;15.00;99.90;;;;;;5081682;28;20104;-43
2021/06/21 09:39:29;;;;;;;2.83;2.20;;;15.00;99.90;;;;;;5068765;28;20032;-43
2021/06/21 09:42:24;;;;;;;2.47;1.80;;;15.00;99.90;;;;;;5064690;28;20021;-44
2021/06/21 09:44:50;;;;;;;1.48;1.38;;;15.00;99.90;;;;;;5056944;28;20044;-43
2021/06/21 09:47:19;;;;;;;1.70;1.50;;;15.00;99.90;;;;;;5078769;28;20115;-44
2021/06/21 09:50:09;;;;;;;1.73;1.60;;;15.00;99.90;;;;;;5069111;28;20456;-44
2021/06/21 09:52:35;;;;;;;1.50;1.40;;;15.10;99.90;;;;;;5081486;28;20024;-44
2021/06/21 09:55:09;;;;;;;1.45;1.35;;;15.20;99.90;;;;;;5064844;28;20111;-43
2021/06/21 09:57:36;;;;;;;1.63;1.52;;;15.20;99.90;;;;;;5081694;28;20054;-44
2021/06/21 10:00:06;;;;;;;1.40;1.30;;;15.30;99.90;;;;;;5067128;28;20116;-44
2021/06/21 10:02:32;;;;;;;1.70;1.60;;;15.30;99.90;;;;;;5080481;28;20462;-44
2021/06/21 10:04:58;;;;;;;1.63;1.52;;;15.30;99.90;;;;;;5064330;28;20542;-44
2021/06/21 10:07:36;;;;;;;1.60;1.50;;;15.40;99.90;;;;;;5071083;28;20024;-43
2021/06/21 10:10:11;;;;;;;1.40;1.30;;;15.40;99.90;;;;;;5069787;28;20040;-44
2021/06/21 10:12:38;;;;;;;1.40;1.30;;;15.50;99.90;;;;;;5070179;28;20101;-44
2021/06/21 10:15:05;;;;;;;1.92;1.10;;;15.60;99.90;;;;;;5061057;28;20024;-44
2021/06/21 10:17:31;;;;;;;1.60;0.98;;;15.60;99.90;;;;;;5066792;28;20185;-46
2021/06/21 10:19:59;;;;;;;1.40;1.30;;;15.60;99.90;;;;;;5082785;28;20117;-43
2021/06/21 10:22:27;;;;;;;1.80;1.23;;;15.60;99.90;;;;;;5082410;28;20028;-43
2021/06/21 10:24:56;;;;;;;1.60;1.50;;;15.50;99.90;;;;;;5066638;28;20017;-42
2021/06/21 10:27:23;;;;;;;1.35;1.13;;;15.50;99.90;;;;;;5062784;28;20017;-43
2021/06/21 10:29:49;;;;;;;1.02;1.00;;;15.60;99.90;;;;;;5057846;28;20039;-43
2021/06/21 10:32:15;;;;;;;1.40;1.30;;;15.60;99.90;;;;;;5061114;28;20027;-43
2021/06/21 10:34:42;;;;;;;1.13;1.13;;;15.50;99.90;;;;;;5078683;28;20029;-43
2021/06/21 10:37:36;;;;;;;1.35;1.25;;;15.60;99.90;;;;;;5062344;28;20021;-43
2021/06/21 10:40:10;;;;;;;1.30;1.20;;;15.60;99.90;;;;;;5062762;28;20043;-43
2021/06/21 10:42:43;;;;;;;1.15;1.10;;;15.70;99.90;;;;;;5058674;28;20127;-43
2021/06/21 10:45:20;;;;;;;2.00;1.10;;;15.70;99.90;;;;;;5054878;28;20040;-43
2021/06/21 10:47:49;;;;;;;1.40;1.20;;;15.80;99.90;;;;;;5061924;28;20035;-44
2021/06/21 10:50:18;;;;;;;2.08;1.30;;;15.80;99.90;;;;;;5077151;28;20025;-42
2021/06/21 10:52:52;;;;;;;1.00;1.00;;;15.80;99.90;;;;;;5068160;28;20391;-42
2021/06/21 10:55:32;;;;;;;1.35;1.10;;;15.70;99.90;;;;;;5078452;28;20116;-42
2021/06/21 10:58:17;;;;;;;1.20;1.10;;;15.80;99.90;;;;;;5067772;28;20478;-42
2021/06/21 11:00:48;;;;;;;1.45;1.35;;;15.70;99.90;;;;;;5066983;28;20089;-43
2021/06/21 11:03:23;;;;;;;2.47;1.35;;;15.70;99.90;;;;;;5085867;28;20539;-43
2021/06/21 11:05:50;;;;;;;1.35;1.20;;;15.70;99.90;;;;;;5076459;28;20055;-43
2021/06/21 11:08:21;;;;;;;1.40;1.30;;;15.70;99.90;;;;;;5085492;28;20024;-42
2021/06/21 11:10:50;;;;;;;1.80;1.30;;;15.70;99.90;;;;;;5075238;28;20572;-43
2021/06/21 11:13:34;;;;;;;2.20;1.15;;;15.70;99.90;;;;;;5085833;28;20430;-43
2021/06/21 11:16:24;;;;;;;1.38;1.02;;;15.70;99.90;;;;;;5075974;28;20104;-43
2021/06/21 11:19:21;;;;;;;1.55;1.45;;;15.90;99.90;;;;;;5084977;28;20059;-43
2021/06/21 11:22:03;;;;;;;1.40;1.30;;;16.00;99.90;;;;;;5073098;28;20031;-42
2021/06/21 11:24:42;;;;;;;1.40;1.30;;;16.10;99.90;;;;;;5082163;28;20039;-43
2021/06/21 11:27:15;;;;;;;1.55;1.30;;;16.30;99.90;;;;;;5080926;28;20031;-43
2021/06/21 11:30:01;;;;;;;1.38;1.20;;;16.30;99.90;;;;;;5081477;28;20040;-42
2021/06/21 11:32:27;;;;;;;1.42;1.30;;;16.20;99.90;;;;;;5082168;28;20491;-42
2021/06/21 11:35:03;;;;;;;1.45;1.27;;;16.20;99.90;;;;;;5073986;28;20027;-42
2021/06/21 11:37:48;;;;;;;1.95;1.17;;;16.20;99.90;;;;;;5069685;28;20036;-42
2021/06/21 11:40:19;;;;;;;1.70;1.25;;;16.30;99.90;;;;;;5072512;28;20514;-43
2021/06/21 11:42:57;;;;;;;1.92;1.40;;;16.40;99.90;;;;;;5071662;28;20050;-43
2021/06/21 11:45:44;;;;;;;1.40;1.30;;;16.40;99.90;;;;;;5073300;28;20024;-43
2021/06/21 11:48:11;;;;;;;2.42;1.60;;;16.40;99.90;;;;;;5068771;28;20108;-43
2021/06/21 11:50:37;;;;;;;1.50;1.30;;;16.40;99.90;;;;;;5074212;28;20096;-43
2021/06/21 11:53:02;;;;;;;1.50;1.40;;;16.40;99.90;;;;;;5070982;28;20130;-43
2021/06/21 11:55:28;;;;;;;2.08;1.65;;;16.30;99.90;;;;;;5071842;28;20066;-43
2021/06/21 11:57:57;;;;;;;1.73;1.63;;;16.30;99.90;;;;;;5079435;28;20496;-41
2021/06/21 12:00:34;;;;;;;1.70;1.60;;;16.20;99.90;;;;;;5083640;28;20032;-42
2021/06/21 12:03:08;;;;;;;1.75;1.60;;;16.20;99.90;;;;;;5077366;28;20145;-42
2021/06/21 12:05:34;;;;;;;1.70;1.60;;;16.20;99.90;;;;;;5076718;28;20514;-42
2021/06/21 12:07:59;;;;;;;1.80;1.58;;;16.30;99.90;;;;;;5071170;28;20036;-42
2021/06/21 12:10:25;;;;;;;2.03;1.80;;;16.40;99.90;;;;;;5056400;28;20021;-42
2021/06/21 12:12:54;;;;;;;2.95;2.00;;;16.50;99.90;;;;;;5042311;28;20086;-42
2021/06/21 12:15:29;;;;;;;1.88;1.77;;;16.60;99.90;;;;;;5053800;28;20476;-41
2021/06/21 12:17:57;;;;;;;1.90;1.60;;;16.60;99.90;;;;;;5054999;28;20517;-42
2021/06/21 12:20:22;;;;;;;1.70;1.60;;;16.80;99.90;;;;;;5064056;28;20104;-43
2021/06/21 12:22:56;;;;;;;2.35;1.85;;;17.10;99.90;;;;;;5078168;28;20124;-43
2021/06/21 12:25:41;;;;;;;2.55;1.55;;;17.20;99.90;;;;;;5059536;28;20050;-42
2021/06/21 12:28:28;;;;;;;1.70;1.60;;;17.30;99.90;;;;;;5063987;28;20028;-42
2021/06/21 12:31:19;;;;;;;1.55;1.40;;;17.20;99.90;;;;;;5061733;28;20036;-42
2021/06/21 12:33:45;;;;;;;1.50;1.40;;;17.10;99.90;;;;;;5059827;28;20033;-44
2021/06/21 12:36:23;;;;;;;3.10;1.70;;;17.10;99.90;;;;;;5066907;28;20024;-42
2021/06/21 12:38:56;;;;;;;2.45;1.88;;;17.10;99.90;;;;;;5081587;28;20134;-43
2021/06/21 12:41:36;;;;;;;2.38;1.75;;;17.10;99.90;;;;;;5062309;28;20052;-42
2021/06/21 12:44:05;;;;;;;3.30;2.13;;;17.10;99.90;;;;;;5080734;28;20445;-42
2021/06/21 12:46:34;;;;;;;1.95;1.80;;;17.00;99.90;;;;;;5070998;28;20020;-42
2021/06/21 12:49:03;;;;;;;2.08;1.90;;;17.00;99.90;;;;;;5080894;28;20024;-40
2021/06/21 12:51:29;;;;;;;2.05;1.60;;;16.90;99.90;;;;;;5070768;28;20029;-42
2021/06/21 12:53:56;;;;;;;1.73;1.63;;;17.00;99.90;;;;;;5080975;28;20170;-43
2021/06/21 12:56:24;;;;;;;2.00;1.73;;;17.00;99.90;;;;;;5069505;28;20021;-43